createdAt,value
2022-11-24T00:01:12.755Z,99896.40
2022-11-24T00:06:16.881Z,99897.40
2022-11-24T00:11:24.495Z,99900.40
2022-11-24T00:16:37.020Z,99910.60
2022-11-24T00:21:40.526Z,99908.40
2022-11-24T00:26:44.053Z,99909.40
2022-11-24T00:31:47.557Z,99920.80
2022-11-24T00:36:50.874Z,99926.80
2022-11-24T00:41:54.388Z,99925.00
2022-11-24T00:46:58.033Z,99915.60
2022-11-24T00:52:01.631Z,99911.40
2022-11-24T00:57:05.037Z,99915.80
2022-11-24T01:02:08.385Z,99922.40
2022-11-24T01:07:12.036Z,99916.40
2022-11-24T01:12:15.584Z,99898.60
2022-11-24T01:17:19.210Z,99888.80
2022-11-24T01:22:22.727Z,99895.00
2022-11-24T01:27:26.142Z,99897.00
2022-11-24T01:32:29.543Z,99888.00
2022-11-24T01:37:33.391Z,99878.00
2022-11-24T01:42:53.985Z,99882.60
2022-11-24T01:47:58.015Z,99881.20
2022-11-24T01:53:01.834Z,99893.80
2022-11-24T01:58:19.526Z,99897.40
2022-11-24T02:03:33.143Z,99892.80
2022-11-24T02:08:58.672Z,99902.80
2022-11-24T02:14:04.346Z,99917.40
2022-11-24T02:19:40.128Z,99914.20
2022-11-24T02:25:14.774Z,99919.20
2022-11-24T02:30:18.681Z,99894.60
2022-11-24T02:35:22.718Z,99893.80
2022-11-24T02:40:30.474Z,99905.80
2022-11-24T02:45:34.139Z,99907.40
2022-11-24T02:50:38.314Z,99903.40
2022-11-24T02:55:41.688Z,99899.60
2022-11-24T03:00:45.099Z,99891.00
2022-11-24T03:05:48.720Z,99884.80
2022-11-24T03:10:52.079Z,99925.80
2022-11-24T03:15:55.587Z,99909.60
2022-11-24T03:21:02.140Z,99902.20
2022-11-24T03:26:16.102Z,99917.40
2022-11-24T03:31:19.590Z,99910.20
2022-11-24T03:36:23.235Z,99895.40
2022-11-24T03:41:26.842Z,99893.00
2022-11-24T03:46:30.297Z,99904.80
2022-11-24T03:51:33.701Z,99914.20
2022-11-24T03:56:37.093Z,99900.40
2022-11-24T04:01:40.675Z,99903.00
2022-11-24T04:06:44.227Z,99907.60
2022-11-24T04:12:06.573Z,99926.20
2022-11-24T04:17:09.996Z,99924.00
2022-11-24T04:22:13.504Z,99926.60
2022-11-24T04:27:16.929Z,99929.00
2022-11-24T04:32:20.562Z,99925.60
2022-11-24T04:37:24.154Z,99935.80
2022-11-24T04:42:27.687Z,99930.80
2022-11-24T04:47:31.187Z,99928.60
2022-11-24T04:52:34.818Z,99923.80
2022-11-24T04:57:38.728Z,99926.00
2022-11-24T05:02:42.246Z,99932.00
2022-11-24T05:07:45.608Z,99927.40
2022-11-24T05:12:57.656Z,99938.60
2022-11-24T05:18:05.353Z,99939.20
2022-11-24T05:23:09.123Z,99939.60
2022-11-24T05:28:12.724Z,99948.80
2022-11-24T05:33:21.113Z,99950.60
2022-11-24T05:38:24.462Z,99949.80
2022-11-24T05:43:27.987Z,99959.20
2022-11-24T05:48:31.296Z,99960.20
2022-11-24T05:53:34.711Z,99958.60
2022-11-24T05:58:37.818Z,99962.40
2022-11-24T06:03:41.215Z,99968.20
2022-11-24T06:08:44.321Z,99960.40
2022-11-24T06:13:48.936Z,99959.20
2022-11-24T06:18:52.382Z,99974.60
2022-11-24T06:23:55.496Z,99973.60
2022-11-24T06:28:58.794Z,99996.20
2022-11-24T06:34:02.309Z,99999.20
2022-11-24T06:39:07.157Z,100009.80
2022-11-24T06:44:10.571Z,100014.40
2022-11-24T06:49:13.782Z,100018.00
2022-11-24T06:54:21.431Z,100013.80
2022-11-24T06:59:25.024Z,100014.60
2022-11-24T07:04:28.221Z,100008.80
2022-11-24T07:09:31.321Z,99999.60
2022-11-24T07:14:34.841Z,100010.00
2022-11-24T07:19:38.165Z,100007.40
2022-11-24T07:24:41.691Z,100015.00
2022-11-24T07:29:44.877Z,100035.80
2022-11-24T07:34:47.994Z,100047.00
2022-11-24T07:39:51.297Z,100048.00
2022-11-24T07:44:54.398Z,100045.80
2022-11-24T07:49:59.553Z,100049.80
2022-11-24T07:55:03.286Z,100043.40
2022-11-24T08:00:07.821Z,100041.00
2022-11-24T08:05:11.027Z,100034.60
2022-11-24T08:10:14.636Z,100031.00
2022-11-24T08:15:17.746Z,100028.40
2022-11-24T08:20:20.853Z,100032.80
2022-11-24T08:25:25.614Z,100035.60
2022-11-24T08:30:29.828Z,100054.00
2022-11-24T08:35:38.303Z,100052.00
2022-11-24T08:40:44.012Z,100051.00
2022-11-24T08:45:47.242Z,100046.20
2022-11-24T08:50:50.576Z,100063.60
2022-11-24T08:55:53.758Z,100059.60
2022-11-24T09:01:07.442Z,100062.20
2022-11-24T09:06:11.334Z,100054.00
2022-11-24T09:11:17.387Z,100050.60
2022-11-24T09:16:27.893Z,100048.00
2022-11-24T09:21:37.850Z,100042.80
2022-11-24T09:26:46.109Z,100036.60
2022-11-24T09:31:50.930Z,100043.40
2022-11-24T09:36:54.041Z,100054.20
2022-11-24T09:42:24.481Z,100061.00
2022-11-24T09:48:14.185Z,100066.40
2022-11-24T09:54:01.533Z,100079.40
2022-11-24T09:59:20.819Z,100072.60
2022-11-24T10:04:35.470Z,100073.60
2022-11-24T10:10:01.124Z,100076.20
2022-11-24T10:15:43.013Z,100075.20
2022-11-24T10:21:13.928Z,100073.80
2022-11-24T10:26:37.110Z,100078.40
2022-11-24T10:31:44.871Z,100077.20
2022-11-24T10:37:31.926Z,100066.00
2022-11-24T10:42:37.289Z,100071.80
2022-11-24T10:47:42.399Z,100067.40
2022-11-24T10:53:07.269Z,100065.00
2022-11-24T10:58:17.650Z,100060.60
2022-11-24T11:03:24.487Z,100062.40
2022-11-24T11:08:32.986Z,100075.00
2022-11-24T11:13:36.274Z,100072.00
2022-11-24T11:18:39.487Z,100065.60
2022-11-24T11:23:46.160Z,100074.80
2022-11-24T11:34:37.654Z,100071.60
2022-11-24T11:39:54.883Z,100074.40
2022-11-24T11:45:18.779Z,100073.80
2022-11-24T11:51:06.779Z,100079.80
2022-11-24T11:56:24.275Z,100078.00
2022-11-24T12:02:12.748Z,100080.60
2022-11-24T12:07:34.654Z,100093.60
2022-11-24T12:13:22.445Z,100094.40
2022-11-24T12:19:07.304Z,100084.00
2022-11-24T12:24:39.696Z,100083.00
2022-11-24T12:29:55.231Z,100080.60
2022-11-24T12:35:44.816Z,100080.80
2022-11-24T12:41:39.253Z,100076.80
2022-11-24T12:47:06.630Z,100080.00
2022-11-24T12:52:31.013Z,100083.40
2022-11-24T12:57:48.090Z,100081.20
2022-11-24T13:03:25.477Z,100075.60
2022-11-24T13:08:30.503Z,100073.40
2022-11-24T13:14:00.743Z,100081.20
2022-11-24T13:19:18.299Z,100084.80
2022-11-24T13:24:30.968Z,100084.40
2022-11-24T13:29:37.631Z,100085.00
2022-11-24T13:34:40.931Z,100072.60
2022-11-24T13:39:52.936Z,100084.00
2022-11-24T13:45:25.869Z,100084.40
2022-11-24T13:51:14.208Z,100084.60
2022-11-24T13:56:17.322Z,100093.00
2022-11-24T14:01:24.458Z,100092.20
2022-11-24T14:06:43.967Z,100101.20
2022-11-24T14:12:12.906Z,100107.00
2022-11-24T14:17:25.404Z,100106.60
2022-11-24T14:22:41.763Z,100117.80
2022-11-24T14:27:44.867Z,100128.00
2022-11-24T14:32:59.804Z,100143.20
2022-11-24T14:38:05.710Z,100140.00
2022-11-24T14:43:33.023Z,100143.80
2022-11-24T14:48:48.995Z,100145.40
2022-11-24T14:54:03.278Z,100141.20
2022-11-24T14:59:25.762Z,100140.80
2022-11-24T15:05:00.894Z,100145.00
2022-11-24T15:10:00.522Z,100152.80
2022-11-24T15:15:16.012Z,100157.40
2022-11-24T15:20:41.865Z,100165.60
2022-11-24T15:25:45.597Z,100161.40
2022-11-24T15:30:48.680Z,100156.80
2022-11-24T15:35:52.302Z,100168.20
2022-11-24T15:41:00.217Z,100167.00
2022-11-24T15:46:05.191Z,100165.20
2022-11-24T15:51:14.418Z,100160.20
2022-11-24T15:56:36.638Z,100158.00
2022-11-24T16:01:39.973Z,100162.60
2022-11-24T16:06:43.396Z,100160.20
2022-11-24T16:11:46.720Z,100161.00
2022-11-24T16:16:50.173Z,100164.60
2022-11-24T16:21:53.640Z,100167.20
2022-11-24T16:26:56.850Z,100167.00
2022-11-24T16:31:59.998Z,100166.20
2022-11-24T16:37:03.364Z,100170.60
2022-11-24T16:42:06.582Z,100179.80
2022-11-24T16:47:12.212Z,100181.60
2022-11-24T16:52:16.776Z,100182.80
2022-11-24T16:57:20.020Z,100183.00
2022-11-24T17:02:23.501Z,100180.40
2022-11-24T17:07:27.569Z,100184.40
2022-11-24T17:12:30.853Z,100189.20
2022-11-24T17:17:34.156Z,100200.60
2022-11-24T17:22:37.478Z,100212.40
2022-11-24T17:27:40.796Z,100215.20
2022-11-24T17:32:44.316Z,100219.60
2022-11-24T17:37:47.707Z,100223.40
2022-11-24T17:42:51.017Z,100229.00
2022-11-24T17:47:55.660Z,100227.60
2022-11-24T17:52:59.180Z,100237.80
2022-11-24T17:58:02.585Z,100240.60
2022-11-24T18:03:06.000Z,100252.40
2022-11-24T18:08:09.516Z,100241.00
2022-11-24T18:13:27.700Z,100244.40
2022-11-24T18:18:40.228Z,100246.80
2022-11-24T18:23:45.151Z,100252.80
2022-11-24T18:28:48.366Z,100256.80
2022-11-24T18:33:51.886Z,100254.80
2022-11-24T18:38:55.186Z,100263.00
2022-11-24T18:44:02.583Z,100262.00
2022-11-24T18:49:07.589Z,100271.40
2022-11-24T18:54:11.056Z,100277.00
2022-11-24T18:59:14.170Z,100274.60
2022-11-24T19:04:18.244Z,100272.20
2022-11-24T19:09:23.042Z,100266.80
2022-11-24T19:14:26.253Z,100264.20
2022-11-24T19:19:34.275Z,100263.20
2022-11-24T19:24:37.995Z,100261.20
2022-11-24T19:29:43.185Z,100258.60
2022-11-24T19:34:49.423Z,100269.20
2022-11-24T19:39:52.845Z,100273.20
2022-11-24T19:44:56.804Z,100282.40
2022-11-24T19:50:00.517Z,100283.80
2022-11-24T19:55:04.815Z,100292.40
2022-11-24T20:00:09.866Z,100287.40
2022-11-24T20:05:13.090Z,100292.40
2022-11-24T20:10:16.294Z,100296.00
2022-11-24T20:15:19.809Z,100299.20
2022-11-24T20:20:22.917Z,100299.60
2022-11-24T20:25:26.126Z,100307.60
2022-11-24T20:30:29.459Z,100306.20
2022-11-24T20:35:33.047Z,100305.00
2022-11-24T20:40:36.276Z,100320.20
2022-11-24T20:45:39.512Z,100326.20
2022-11-24T20:50:46.915Z,100333.00
2022-11-24T20:55:53.039Z,100322.60
2022-11-24T21:00:56.869Z,100323.60
2022-11-24T21:06:00.635Z,100331.20
2022-11-24T21:11:06.634Z,100346.00
2022-11-24T21:16:16.707Z,100344.80
2022-11-24T21:21:22.043Z,100354.00
2022-11-24T21:26:25.134Z,100354.40
2022-11-24T21:31:28.356Z,100352.00
2022-11-24T21:36:34.264Z,100352.40
2022-11-24T21:41:37.800Z,100354.00
2022-11-24T21:46:46.191Z,100350.20
2022-11-24T21:51:56.041Z,100360.60
2022-11-24T21:56:59.549Z,100354.80
2022-11-24T22:02:02.903Z,100346.00
2022-11-24T22:07:07.004Z,100343.20
2022-11-24T22:12:10.157Z,100344.80
2022-11-24T22:17:14.900Z,100346.60
2022-11-24T22:22:18.421Z,100348.40
2022-11-24T22:27:21.625Z,100358.60
2022-11-24T22:32:24.763Z,100358.00
2022-11-24T22:37:27.841Z,100367.00
2022-11-24T22:42:30.975Z,100377.20
2022-11-24T22:47:34.259Z,100372.40
2022-11-24T22:52:38.908Z,100378.80
2022-11-24T22:57:46.026Z,100388.60
2022-11-24T23:02:51.427Z,100391.00
2022-11-24T23:07:54.815Z,100388.00
2022-11-24T23:12:58.302Z,100393.40
2022-11-24T23:18:01.499Z,100396.20
2022-11-24T23:23:04.801Z,100390.40
2022-11-24T23:28:08.526Z,100391.60
2022-11-24T23:33:15.094Z,100385.00
2022-11-24T23:38:22.427Z,100381.20
2022-11-24T23:43:28.388Z,100375.60
2022-11-24T23:48:35.102Z,100369.60
2022-11-24T23:53:40.865Z,100373.00
2022-11-24T23:58:45.887Z,100372.20
